sensor_id;sensor_type;location;lat;lon;timestamp;temperature;humidity
3310;DHT22;1667;53.238;10.394;2023-04-15T00:01:48;11.10;99.90
3310;DHT22;1667;53.238;10.394;2023-04-15T00:06:52;11.00;99.90
3310;DHT22;1667;53.238;10.394;2023-04-15T00:11:51;11.00;99.90
3310;DHT22;1667;53.238;10.394;2023-04-15T00:16:49;10.90;99.90
3310;DHT22;1667;53.238;10.394;2023-04-15T00:21:53;10.70;99.90
3310;DHT22;1667;53.238;10.394;2023-04-15T00:26:52;10.70;99.90
3310;DHT22;1667;53.238;10.394;2023-04-15T00:31:50;10.70;99.90
3310;DHT22;1667;53.238;10.394;2023-04-15T00:36:49;10.50;99.90
3310;DHT22;1667;53.238;10.394;2023-04-15T00:41:50;10.50;99.90
3310;DHT22;1667;53.238;10.394;2023-04-15T00:46:50;10.50;99.90
3310;DHT22;1667;53.238;10.394;2023-04-15T00:51:49;10.50;99.90
3310;DHT22;1667;53.238;10.394;2023-04-15T00:56:47;10.50;99.90
3310;DHT22;1667;53.238;10.394;2023-04-15T01:01:47;10.60;99.90
3310;DHT22;1667;53.238;10.394;2023-04-15T01:06:46;10.50;99.90
3310;DHT22;1667;53.238;10.394;2023-04-15T01:11:45;10.50;99.90
3310;DHT22;1667;53.238;10.394;2023-04-15T01:16:43;10.50;99.90
3310;DHT22;1667;53.238;10.394;2023-04-15T01:21:44;10.60;99.90
3310;DHT22;1667;53.238;10.394;2023-04-15T01:26:44;10.70;99.90
3310;DHT22;1667;53.238;10.394;2023-04-15T01:31:49;10.60;99.90
3310;DHT22;1667;53.238;10.394;2023-04-15T01:36:48;10.70;99.90
3310;DHT22;1667;53.238;10.394;2023-04-15T01:41:48;10.60;99.90
3310;DHT22;1667;53.238;10.394;2023-04-15T01:46:47;10.60;99.90
3310;DHT22;1667;53.238;10.394;2023-04-15T01:51:45;10.70;99.90
3310;DHT22;1667;53.238;10.394;2023-04-15T01:56:44;10.80;99.90
3310;DHT22;1667;53.238;10.394;2023-04-15T02:01:44;10.80;99.90
3310;DHT22;1667;53.238;10.394;2023-04-15T02:06:43;10.80;99.90
3310;DHT22;1667;53.238;10.394;2023-04-15T02:11:43;10.90;99.90
3310;DHT22;1667;53.238;10.394;2023-04-15T02:16:41;10.80;99.90
3310;DHT22;1667;53.238;10.394;2023-04-15T02:21:41;10.70;99.90
3310;DHT22;1667;53.238;10.394;2023-04-15T02:26:40;10.70;99.90
3310;DHT22;1667;53.238;10.394;2023-04-15T02:31:38;10.70;99.90
3310;DHT22;1667;53.238;10.394;2023-04-15T02:36:38;10.80;99.90
3310;DHT22;1667;53.238;10.394;2023-04-15T02:41:38;10.70;99.90
3310;DHT22;1667;53.238;10.394;2023-04-15T02:46:37;10.70;99.90
3310;DHT22;1667;53.238;10.394;2023-04-15T02:51:37;10.80;99.90
3310;DHT22;1667;53.238;10.394;2023-04-15T02:56:35;10.80;99.90
3310;DHT22;1667;53.238;10.394;2023-04-15T03:01:35;10.80;99.90
3310;DHT22;1667;53.238;10.394;2023-04-15T03:06:34;10.90;99.90
3310;DHT22;1667;53.238;10.394;2023-04-15T03:11:33;11.00;99.90
3310;DHT22;1667;53.238;10.394;2023-04-15T03:16:39;11.00;99.90
3310;DHT22;1667;53.238;10.394;2023-04-15T03:21:38;11.00;99.90
3310;DHT22;1667;53.238;10.394;2023-04-15T03:26:37;10.90;99.90
3310;DHT22;1667;53.238;10.394;2023-04-15T03:31:44;11.00;99.90
3310;DHT22;1667;53.238;10.394;2023-04-15T03:36:43;10.90;99.90
3310;DHT22;1667;53.238;10.394;2023-04-15T03:41:41;10.90;99.90
3310;DHT22;1667;53.238;10.394;2023-04-15T03:46:40;10.80;99.90
3310;DHT22;1667;53.238;10.394;2023-04-15T03:51:40;10.80;99.90
3310;DHT22;1667;53.238;10.394;2023-04-15T03:56:40;10.70;99.90
3310;DHT22;1667;53.238;10.394;2023-04-15T04:01:38;10.80;99.90
3310;DHT22;1667;53.238;10.394;2023-04-15T04:06:37;10.90;99.90
3310;DHT22;1667;53.238;10.394;2023-04-15T04:11:37;10.90;99.90
3310;DHT22;1667;53.238;10.394;2023-04-15T04:16:36;10.90;99.90
3310;DHT22;1667;53.238;10.394;2023-04-15T04:21:34;10.90;99.90
3310;DHT22;1667;53.238;10.394;2023-04-15T04:26:33;10.60;99.90
3310;DHT22;1667;53.238;10.394;2023-04-15T04:31:33;10.50;99.90
3310;DHT22;1667;53.238;10.394;2023-04-15T04:36:32;10.60;99.90
3310;DHT22;1667;53.238;10.394;2023-04-15T04:41:31;10.40;99.90
3310;DHT22;1667;53.238;10.394;2023-04-15T04:46:29;10.40;99.90
3310;DHT22;1667;53.238;10.394;2023-04-15T04:51:30;10.40;99.90
3310;DHT22;1667;53.238;10.394;2023-04-15T04:56:28;10.50;99.90
3310;DHT22;1667;53.238;10.394;2023-04-15T05:01:27;10.40;99.90
3310;DHT22;1667;53.238;10.394;2023-04-15T05:06:26;10.50;99.90
3310;DHT22;1667;53.238;10.394;2023-04-15T05:11:28;10.60;99.90
3310;DHT22;1667;53.238;10.394;2023-04-15T05:16:26;10.80;99.90
3310;DHT22;1667;53.238;10.394;2023-04-15T05:21:25;10.60;99.90
3310;DHT22;1667;53.238;10.394;2023-04-15T05:26:23;10.60;99.90
3310;DHT22;1667;53.238;10.394;2023-04-15T05:31:25;10.50;99.90
3310;DHT22;1667;53.238;10.394;2023-04-15T05:36:23;10.50;99.90
3310;DHT22;1667;53.238;10.394;2023-04-15T05:41:22;10.60;99.90
3310;DHT22;1667;53.238;10.394;2023-04-15T05:46:20;10.70;99.90
3310;DHT22;1667;53.238;10.394;2023-04-15T05:51:21;10.60;99.90
3310;DHT22;1667;53.238;10.394;2023-04-15T05:56:19;10.60;99.90
3310;DHT22;1667;53.238;10.394;2023-04-15T06:01:18;10.70;99.90
3310;DHT22;1667;53.238;10.394;2023-04-15T06:06:16;10.80;99.90
3310;DHT22;1667;53.238;10.394;2023-04-15T06:11:16;10.80;99.90
3310;DHT22;1667;53.238;10.394;2023-04-15T06:16:15;10.90;99.90
3310;DHT22;1667;53.238;10.394;2023-04-15T06:21:14;10.90;99.90
3310;DHT22;1667;53.238;10.394;2023-04-15T06:26:12;10.90;99.90
3310;DHT22;1667;53.238;10.394;2023-04-15T06:31:12;10.80;99.90
3310;DHT22;1667;53.238;10.394;2023-04-15T06:36:10;10.90;99.90
3310;DHT22;1667;53.238;10.394;2023-04-15T06:41:09;10.80;99.90
3310;DHT22;1667;53.238;10.394;2023-04-15T06:46:07;10.80;99.90
3310;DHT22;1667;53.238;10.394;2023-04-15T06:51:08;10.70;99.90
3310;DHT22;1667;53.238;10.394;2023-04-15T06:56:07;10.60;99.90
3310;DHT22;1667;53.238;10.394;2023-04-15T07:01:06;10.60;99.90
3310;DHT22;1667;53.238;10.394;2023-04-15T07:06:05;10.70;99.90
3310;DHT22;1667;53.238;10.394;2023-04-15T07:11:05;10.70;99.90
3310;DHT22;1667;53.238;10.394;2023-04-15T07:16:04;10.60;99.90
3310;DHT22;1667;53.238;10.394;2023-04-15T07:21:02;10.70;99.90
3310;DHT22;1667;53.238;10.394;2023-04-15T07:26:02;10.70;99.90
3310;DHT22;1667;53.238;10.394;2023-04-15T07:31:01;10.80;99.90
3310;DHT22;1667;53.238;10.394;2023-04-15T07:36:00;10.90;99.90
3310;DHT22;1667;53.238;10.394;2023-04-15T07:40:59;10.90;99.90
3310;DHT22;1667;53.238;10.394;2023-04-15T07:45:57;10.80;99.90
3310;DHT22;1667;53.238;10.394;2023-04-15T07:50:58;10.80;99.90
3310;DHT22;1667;53.238;10.394;2023-04-15T07:55:56;11.20;99.90
3310;DHT22;1667;53.238;10.394;2023-04-15T08:00:55;11.00;99.90
3310;DHT22;1667;53.238;10.394;2023-04-15T08:05:53;11.00;99.90
3310;DHT22;1667;53.238;10.394;2023-04-15T08:10:53;11.10;99.90
3310;DHT22;1667;53.238;10.394;2023-04-15T08:21:07;11.10;99.90
3310;DHT22;1667;53.238;10.394;2023-04-15T08:26:07;11.20;99.90
3310;DHT22;1667;53.238;10.394;2023-04-15T08:31:06;11.20;99.90
3310;DHT22;1667;53.238;10.394;2023-04-15T08:36:06;11.30;99.90
3310;DHT22;1667;53.238;10.394;2023-04-15T08:41:11;11.30;99.90
3310;DHT22;1667;53.238;10.394;2023-04-15T08:46:13;11.30;99.90
3310;DHT22;1667;53.238;10.394;2023-04-15T08:51:13;11.30;99.90
3310;DHT22;1667;53.238;10.394;2023-04-15T08:56:14;11.40;99.90
3310;DHT22;1667;53.238;10.394;2023-04-15T09:01:13;11.50;99.90
3310;DHT22;1667;53.238;10.394;2023-04-15T09:06:13;11.40;99.90
3310;DHT22;1667;53.238;10.394;2023-04-15T09:11:15;11.50;99.90
3310;DHT22;1667;53.238;10.394;2023-04-15T09:16:16;11.60;99.90
3310;DHT22;1667;53.238;10.394;2023-04-15T09:21:16;11.70;99.90
3310;DHT22;1667;53.238;10.394;2023-04-15T09:26:16;11.60;99.90
3310;DHT22;1667;53.238;10.394;2023-04-15T09:31:15;11.60;99.90
3310;DHT22;1667;53.238;10.394;2023-04-15T09:36:13;11.70;99.90
3310;DHT22;1667;53.238;10.394;2023-04-15T09:41:17;11.90;99.90
3310;DHT22;1667;53.238;10.394;2023-04-15T09:46:16;12.00;99.90
3310;DHT22;1667;53.238;10.394;2023-04-15T09:51:15;12.10;99.90
3310;DHT22;1667;53.238;10.394;2023-04-15T09:56:14;12.30;99.90
3310;DHT22;1667;53.238;10.394;2023-04-15T10:01:14;12.40;99.90
3310;DHT22;1667;53.238;10.394;2023-04-15T10:06:13;12.50;99.90
3310;DHT22;1667;53.238;10.394;2023-04-15T10:11:12;12.40;99.90
3310;DHT22;1667;53.238;10.394;2023-04-15T10:16:14;12.50;99.90
3310;DHT22;1667;53.238;10.394;2023-04-15T10:21:13;12.60;99.90
3310;DHT22;1667;53.238;10.394;2023-04-15T10:26:15;12.70;99.90
3310;DHT22;1667;53.238;10.394;2023-04-15T10:31:16;12.90;99.90
3310;DHT22;1667;53.238;10.394;2023-04-15T10:36:16;13.20;99.90
3310;DHT22;1667;53.238;10.394;2023-04-15T10:41:18;13.30;99.90
3310;DHT22;1667;53.238;10.394;2023-04-15T10:46:21;13.40;99.90
3310;DHT22;1667;53.238;10.394;2023-04-15T10:51:30;13.50;99.90
3310;DHT22;1667;53.238;10.394;2023-04-15T10:56:29;13.60;99.90
3310;DHT22;1667;53.238;10.394;2023-04-15T11:02:00;13.70;99.90
3310;DHT22;1667;53.238;10.394;2023-04-15T11:07:04;14.20;99.90
3310;DHT22;1667;53.238;10.394;2023-04-15T11:12:07;14.20;99.90
3310;DHT22;1667;53.238;10.394;2023-04-15T11:17:08;14.40;99.90
3310;DHT22;1667;53.238;10.394;2023-04-15T11:22:07;14.60;99.90
3310;DHT22;1667;53.238;10.394;2023-04-15T11:27:06;14.80;99.90
3310;DHT22;1667;53.238;10.394;2023-04-15T11:32:05;15.00;99.90
3310;DHT22;1667;53.238;10.394;2023-04-15T11:37:05;15.10;99.90
3310;DHT22;1667;53.238;10.394;2023-04-15T11:42:15;15.20;99.90
3310;DHT22;1667;53.238;10.394;2023-04-15T11:47:23;15.30;99.90
3310;DHT22;1667;53.238;10.394;2023-04-15T11:52:23;15.40;99.90
3310;DHT22;1667;53.238;10.394;2023-04-15T11:57:22;15.40;99.90
3310;DHT22;1667;53.238;10.394;2023-04-15T12:02:30;15.30;99.90
3310;DHT22;1667;53.238;10.394;2023-04-15T12:07:30;15.40;99.90
3310;DHT22;1667;53.238;10.394;2023-04-15T12:12:29;15.40;99.90
3310;DHT22;1667;53.238;10.394;2023-04-15T12:17:27;15.50;99.90
3310;DHT22;1667;53.238;10.394;2023-04-15T12:22:48;15.50;99.90
3310;DHT22;1667;53.238;10.394;2023-04-15T12:27:50;15.50;99.90
3310;DHT22;1667;53.238;10.394;2023-04-15T12:32:51;15.50;99.90
3310;DHT22;1667;53.238;10.394;2023-04-15T12:37:51;15.40;99.90
3310;DHT22;1667;53.238;10.394;2023-04-15T12:42:50;15.40;99.90
3310;DHT22;1667;53.238;10.394;2023-04-15T12:47:48;15.50;99.90
3310;DHT22;1667;53.238;10.394;2023-04-15T12:52:47;15.50;99.90
3310;DHT22;1667;53.238;10.394;2023-04-15T12:57:47;15.60;99.90
3310;DHT22;1667;53.238;10.394;2023-04-15T13:02:45;15.70;99.90
3310;DHT22;1667;53.238;10.394;2023-04-15T13:07:44;15.70;99.90
3310;DHT22;1667;53.238;10.394;2023-04-15T13:12:43;15.70;99.90
3310;DHT22;1667;53.238;10.394;2023-04-15T13:17:44;15.70;99.90
3310;DHT22;1667;53.238;10.394;2023-04-15T13:22:42;15.60;99.90
3310;DHT22;1667;53.238;10.394;2023-04-15T13:27:41;15.60;99.90
3310;DHT22;1667;53.238;10.394;2023-04-15T13:32:39;15.60;99.90
3310;DHT22;1667;53.238;10.394;2023-04-15T13:37:39;15.50;99.90
3310;DHT22;1667;53.238;10.394;2023-04-15T13:42:38;15.40;99.90
3310;DHT22;1667;53.238;10.394;2023-04-15T13:47:37;15.40;99.90
3310;DHT22;1667;53.238;10.394;2023-04-15T13:52:35;15.40;99.90
3310;DHT22;1667;53.238;10.394;2023-04-15T13:57:35;15.30;99.90
3310;DHT22;1667;53.238;10.394;2023-04-15T14:02:34;15.30;99.90
3310;DHT22;1667;53.238;10.394;2023-04-15T14:07:33;15.20;99.90
3310;DHT22;1667;53.238;10.394;2023-04-15T14:12:32;15.30;99.90
3310;DHT22;1667;53.238;10.394;2023-04-15T14:17:32;15.20;99.90
3310;DHT22;1667;53.238;10.394;2023-04-15T14:22:30;15.20;99.90
3310;DHT22;1667;53.238;10.394;2023-04-15T14:27:29;15.20;99.90
3310;DHT22;1667;53.238;10.394;2023-04-15T14:32:27;15.20;99.90
3310;DHT22;1667;53.238;10.394;2023-04-15T14:37:27;15.10;99.90
3310;DHT22;1667;53.238;10.394;2023-04-15T14:42:26;15.10;99.90
3310;DHT22;1667;53.238;10.394;2023-04-15T14:47:24;15.10;99.90
3310;DHT22;1667;53.238;10.394;2023-04-15T14:52:23;15.10;99.90
3310;DHT22;1667;53.238;10.394;2023-04-15T14:57:23;15.20;99.90
3310;DHT22;1667;53.238;10.394;2023-04-15T15:02:21;15.20;99.90
3310;DHT22;1667;53.238;10.394;2023-04-15T15:07:34;15.30;99.90
3310;DHT22;1667;53.238;10.394;2023-04-15T15:12:34;15.30;99.90
3310;DHT22;1667;53.238;10.394;2023-04-15T15:17:34;15.40;99.90
3310;DHT22;1667;53.238;10.394;2023-04-15T15:22:32;15.50;99.90
3310;DHT22;1667;53.238;10.394;2023-04-15T15:27:30;15.50;99.90
3310;DHT22;1667;53.238;10.394;2023-04-15T15:32:30;15.50;99.90
3310;DHT22;1667;53.238;10.394;2023-04-15T15:37:29;15.50;99.90
3310;DHT22;1667;53.238;10.394;2023-04-15T15:42:30;15.60;99.90
3310;DHT22;1667;53.238;10.394;2023-04-15T15:47:30;15.60;99.90
3310;DHT22;1667;53.238;10.394;2023-04-15T15:52:29;15.60;99.90
3310;DHT22;1667;53.238;10.394;2023-04-15T15:57:27;15.70;99.90
3310;DHT22;1667;53.238;10.394;2023-04-15T16:02:26;15.70;99.90
3310;DHT22;1667;53.238;10.394;2023-04-15T16:07:48;15.70;99.90
3310;DHT22;1667;53.238;10.394;2023-04-15T16:12:46;15.60;99.90
3310;DHT22;1667;53.238;10.394;2023-04-15T16:17:45;15.70;99.90
3310;DHT22;1667;53.238;10.394;2023-04-15T16:22:43;15.70;99.90
3310;DHT22;1667;53.238;10.394;2023-04-15T16:27:43;15.60;99.90
3310;DHT22;1667;53.238;10.394;2023-04-15T16:32:57;15.60;99.90
3310;DHT22;1667;53.238;10.394;2023-04-15T16:37:55;15.50;99.90
3310;DHT22;1667;53.238;10.394;2023-04-15T16:42:55;15.40;99.90
3310;DHT22;1667;53.238;10.394;2023-04-15T16:47:54;15.30;99.90
3310;DHT22;1667;53.238;10.394;2023-04-15T16:52:53;15.20;99.90
3310;DHT22;1667;53.238;10.394;2023-04-15T16:57:51;15.10;99.90
3310;DHT22;1667;53.238;10.394;2023-04-15T17:03:01;15.00;99.90
3310;DHT22;1667;53.238;10.394;2023-04-15T17:08:00;15.00;99.90
3310;DHT22;1667;53.238;10.394;2023-04-15T17:12:58;14.70;99.90
3310;DHT22;1667;53.238;10.394;2023-04-15T17:17:57;14.70;99.90
3310;DHT22;1667;53.238;10.394;2023-04-15T17:22:57;14.40;99.90
3310;DHT22;1667;53.238;10.394;2023-04-15T17:34:51;14.20;99.90
3310;DHT22;1667;53.238;10.394;2023-04-15T17:39:51;14.10;99.90
3310;DHT22;1667;53.238;10.394;2023-04-15T17:44:50;14.20;99.90
3310;DHT22;1667;53.238;10.394;2023-04-15T17:49:48;14.30;99.90
3310;DHT22;1667;53.238;10.394;2023-04-15T17:54:47;14.20;99.90
3310;DHT22;1667;53.238;10.394;2023-04-15T17:59:47;14.10;99.90
3310;DHT22;1667;53.238;10.394;2023-04-15T18:04:45;14.00;99.90
3310;DHT22;1667;53.238;10.394;2023-04-15T18:09:44;13.90;99.90
3310;DHT22;1667;53.238;10.394;2023-04-15T18:14:42;13.80;99.90
3310;DHT22;1667;53.238;10.394;2023-04-15T18:19:42;13.70;99.90
3310;DHT22;1667;53.238;10.394;2023-04-15T18:24:42;13.70;99.90
3310;DHT22;1667;53.238;10.394;2023-04-15T18:29:40;13.50;99.90
3310;DHT22;1667;53.238;10.394;2023-04-15T18:34:40;13.50;99.90
3310;DHT22;1667;53.238;10.394;2023-04-15T18:39:40;13.50;99.90
3310;DHT22;1667;53.238;10.394;2023-04-15T18:44:39;13.50;99.90
3310;DHT22;1667;53.238;10.394;2023-04-15T18:49:37;13.50;99.90
3310;DHT22;1667;53.238;10.394;2023-04-15T18:54:36;13.40;99.90
3310;DHT22;1667;53.238;10.394;2023-04-15T18:59:36;13.30;99.90
3310;DHT22;1667;53.238;10.394;2023-04-15T19:04:35;13.10;99.90
3310;DHT22;1667;53.238;10.394;2023-04-15T19:09:33;13.00;99.90
3310;DHT22;1667;53.238;10.394;2023-04-15T19:14:32;12.90;99.90
3310;DHT22;1667;53.238;10.394;2023-04-15T19:19:32;12.90;99.90
3310;DHT22;1667;53.238;10.394;2023-04-15T19:24:31;12.80;99.90
3310;DHT22;1667;53.238;10.394;2023-04-15T19:29:30;12.80;99.90
3310;DHT22;1667;53.238;10.394;2023-04-15T19:34:28;12.80;99.90
3310;DHT22;1667;53.238;10.394;2023-04-15T19:39:29;12.80;99.90
3310;DHT22;1667;53.238;10.394;2023-04-15T19:44:27;12.80;99.90
3310;DHT22;1667;53.238;10.394;2023-04-15T19:49:26;12.80;99.90
3310;DHT22;1667;53.238;10.394;2023-04-15T19:54:24;12.80;99.90
3310;DHT22;1667;53.238;10.394;2023-04-15T19:59:24;12.80;99.90
3310;DHT22;1667;53.238;10.394;2023-04-15T20:04:23;12.70;99.90
3310;DHT22;1667;53.238;10.394;2023-04-15T20:09:22;12.60;99.90
3310;DHT22;1667;53.238;10.394;2023-04-15T20:14:21;12.70;99.90
3310;DHT22;1667;53.238;10.394;2023-04-15T20:19:22;12.60;99.90
3310;DHT22;1667;53.238;10.394;2023-04-15T20:24:21;12.40;99.90
3310;DHT22;1667;53.238;10.394;2023-04-15T20:29:20;12.40;99.90
3310;DHT22;1667;53.238;10.394;2023-04-15T20:34:18;12.60;99.90
3310;DHT22;1667;53.238;10.394;2023-04-15T20:39:18;12.70;99.90
3310;DHT22;1667;53.238;10.394;2023-04-15T20:44:17;12.50;99.90
3310;DHT22;1667;53.238;10.394;2023-04-15T20:49:16;12.50;99.90
3310;DHT22;1667;53.238;10.394;2023-04-15T20:54:15;12.40;99.90
3310;DHT22;1667;53.238;10.394;2023-04-15T20:59:16;12.30;99.90
3310;DHT22;1667;53.238;10.394;2023-04-15T21:04:15;12.10;99.90
3310;DHT22;1667;53.238;10.394;2023-04-15T21:09:13;11.90;99.90
3310;DHT22;1667;53.238;10.394;2023-04-15T21:14:12;11.70;99.90
3310;DHT22;1667;53.238;10.394;2023-04-15T21:19:12;11.80;99.90
3310;DHT22;1667;53.238;10.394;2023-04-15T21:24:10;11.80;99.90
3310;DHT22;1667;53.238;10.394;2023-04-15T21:29:08;11.60;99.90
3310;DHT22;1667;53.238;10.394;2023-04-15T21:34:08;11.70;99.90
3310;DHT22;1667;53.238;10.394;2023-04-15T21:39:08;11.70;99.90
3310;DHT22;1667;53.238;10.394;2023-04-15T21:44:06;11.60;99.90
3310;DHT22;1667;53.238;10.394;2023-04-15T21:49:05;11.60;99.90
3310;DHT22;1667;53.238;10.394;2023-04-15T21:54:03;11.40;99.90
3310;DHT22;1667;53.238;10.394;2023-04-15T21:59:03;11.30;99.90
3310;DHT22;1667;53.238;10.394;2023-04-15T22:04:03;11.20;99.90
3310;DHT22;1667;53.238;10.394;2023-04-15T22:09:03;11.20;99.90
3310;DHT22;1667;53.238;10.394;2023-04-15T22:14:03;11.40;99.90
3310;DHT22;1667;53.238;10.394;2023-04-15T22:19:02;11.60;99.90
3310;DHT22;1667;53.238;10.394;2023-04-15T22:24:01;11.70;99.90
3310;DHT22;1667;53.238;10.394;2023-04-15T22:29:21;11.60;99.90
3310;DHT22;1667;53.238;10.394;2023-04-15T22:34:20;11.10;99.90
3310;DHT22;1667;53.238;10.394;2023-04-15T22:39:18;11.00;99.90
3310;DHT22;1667;53.238;10.394;2023-04-15T22:44:17;11.00;99.90
3310;DHT22;1667;53.238;10.394;2023-04-15T22:49:17;11.00;99.90
3310;DHT22;1667;53.238;10.394;2023-04-15T22:54:15;11.00;99.90
3310;DHT22;1667;53.238;10.394;2023-04-15T22:59:14;11.00;99.90
3310;DHT22;1667;53.238;10.394;2023-04-15T23:04:12;10.90;99.90
3310;DHT22;1667;53.238;10.394;2023-04-15T23:09:25;11.40;99.90
3310;DHT22;1667;53.238;10.394;2023-04-15T23:14:23;11.20;99.90
3310;DHT22;1667;53.238;10.394;2023-04-15T23:19:24;11.20;99.90
3310;DHT22;1667;53.238;10.394;2023-04-15T23:24:22;11.30;99.90
3310;DHT22;1667;53.238;10.394;2023-04-15T23:29:22;11.20;99.90
3310;DHT22;1667;53.238;10.394;2023-04-15T23:34:21;10.90;99.90
3310;DHT22;1667;53.238;10.394;2023-04-15T23:39:19;11.00;99.90
3310;DHT22;1667;53.238;10.394;2023-04-15T23:44:17;11.10;99.90
3310;DHT22;1667;53.238;10.394;2023-04-15T23:49:17;11.20;99.90
3310;DHT22;1667;53.238;10.394;2023-04-15T23:54:16;11.10;99.90
3310;DHT22;1667;53.238;10.394;2023-04-15T23:59:15;11.20;99.90
